createdAt,value
2022-10-19T00:00:33.140Z,97454.25
2022-10-19T00:01:36.676Z,97453.91
2022-10-19T00:02:38.311Z,97451.88
2022-10-19T00:03:41.116Z,97451.53
2022-10-19T00:04:42.993Z,97451.69
2022-10-19T00:05:44.508Z,97449.75
2022-10-19T00:06:46.400Z,97447.84
2022-10-19T00:07:47.932Z,97450.22
2022-10-19T00:08:49.451Z,97449.75
2022-10-19T00:09:51.104Z,97450.72
2022-10-19T00:10:52.649Z,97447.91
2022-10-19T00:11:54.224Z,97445.22
2022-10-19T00:12:55.803Z,97441.59
2022-10-19T00:13:58.450Z,97436.25
2022-10-19T00:15:00.204Z,97443.78
2022-10-19T00:16:02.210Z,97441.09
2022-10-19T00:17:03.759Z,97440.16
2022-10-19T00:18:05.281Z,97438.72
2022-10-19T00:19:12.376Z,97434.03
2022-10-19T00:20:13.953Z,97430.59
2022-10-19T00:21:18.146Z,97428.22
2022-10-19T00:22:19.722Z,97437.22
2022-10-19T00:23:22.901Z,97434.38
2022-10-19T00:24:24.477Z,97436.25
2022-10-19T00:25:26.012Z,97430.38
2022-10-19T00:26:27.969Z,97428.16
2022-10-19T00:27:29.596Z,97431.38
2022-10-19T00:28:31.480Z,97433.50
2022-10-19T00:29:33.138Z,97425.59
2022-10-19T00:30:38.418Z,97427.25
2022-10-19T00:31:40.983Z,97426.00
2022-10-19T00:32:42.687Z,97430.56
2022-10-19T00:33:46.905Z,97422.00
2022-10-19T00:34:48.516Z,97424.75
2022-10-19T00:35:51.624Z,97421.50
2022-10-19T00:36:53.139Z,97415.50
2022-10-19T00:37:54.690Z,97418.91
2022-10-19T00:38:57.415Z,97416.34
2022-10-19T00:39:58.970Z,97411.59
2022-10-19T00:41:00.501Z,97418.72
2022-10-19T00:42:02.132Z,97416.13
2022-10-19T00:43:03.706Z,97420.84
2022-10-19T00:44:30.890Z,97419.16
2022-10-19T00:45:32.467Z,97418.56
2022-10-19T00:46:37.080Z,97410.53
2022-10-19T00:47:39.080Z,97415.72
2022-10-19T00:48:40.680Z,97412.81
2022-10-19T00:49:45.404Z,97411.28
2022-10-19T00:50:48.679Z,97412.34
2022-10-19T00:51:56.863Z,97407.00
2022-10-19T00:52:58.419Z,97409.56
2022-10-19T00:54:02.304Z,97407.41
2022-10-19T00:55:04.746Z,97400.03
2022-10-19T00:56:12.065Z,97401.81
2022-10-19T00:57:14.474Z,97406.97
2022-10-19T00:58:16.083Z,97397.56
2022-10-19T00:59:20.943Z,97403.38
2022-10-19T01:00:22.529Z,97406.53
2022-10-19T01:01:26.595Z,97396.94
2022-10-19T01:02:28.264Z,97396.38
2022-10-19T01:03:29.837Z,97400.50
2022-10-19T01:04:33.971Z,97395.34
2022-10-19T01:05:36.385Z,97401.03
2022-10-19T01:06:39.633Z,97398.56
2022-10-19T01:07:41.361Z,97399.53
2022-10-19T01:08:42.971Z,97395.78
2022-10-19T01:09:44.604Z,97397.31
2022-10-19T01:11:01.596Z,97401.78
2022-10-19T01:12:12.155Z,97395.16
2022-10-19T01:13:39.664Z,97394.53
2022-10-19T01:14:46.750Z,97389.69
2022-10-19T01:16:04.932Z,97391.72
2022-10-19T01:17:25.050Z,97388.91
2022-10-19T01:18:58.160Z,97394.75
2022-10-19T01:20:02.288Z,97391.78
2022-10-19T01:21:28.761Z,97389.91
2022-10-19T01:22:48.082Z,97387.72
2022-10-19T01:24:08.345Z,97392.91
2022-10-19T01:25:34.011Z,97388.84
2022-10-19T01:27:17.560Z,97388.06
2022-10-19T01:28:43.247Z,97380.44
2022-10-19T01:30:22.152Z,97380.19
2022-10-19T01:31:44.706Z,97386.63
2022-10-19T01:33:04.536Z,97380.44
2022-10-19T01:34:30.507Z,97378.16
2022-10-19T01:35:39.706Z,97381.28
2022-10-19T01:37:02.655Z,97377.53
2022-10-19T01:38:04.124Z,97378.03
2022-10-19T01:39:33.280Z,97376.31
2022-10-19T01:40:55.179Z,97375.69
2022-10-19T01:42:07.411Z,97375.38
2022-10-19T01:43:40.195Z,97368.16
2022-10-19T01:44:50.748Z,97365.78
2022-10-19T01:46:06.503Z,97363.59
2022-10-19T01:47:15.516Z,97357.63
2022-10-19T01:48:31.904Z,97356.25
2022-10-19T01:49:48.411Z,97360.97
2022-10-19T01:51:01.953Z,97358.91
2022-10-19T01:52:06.978Z,97360.19
2022-10-19T01:53:12.486Z,97361.94
2022-10-19T01:54:16.887Z,97358.94
2022-10-19T01:55:19.905Z,97363.50
2022-10-19T01:56:26.461Z,97352.81
2022-10-19T01:57:35.287Z,97360.53
2022-10-19T01:58:41.062Z,97356.56
2022-10-19T01:59:43.966Z,97351.22
2022-10-19T02:00:49.788Z,97352.34
2022-10-19T02:01:53.718Z,97354.41
2022-10-19T02:02:56.385Z,97358.34
2022-10-19T02:03:58.796Z,97351.09
2022-10-19T02:05:02.186Z,97346.25
2022-10-19T02:06:07.296Z,97351.41
2022-10-19T02:07:10.962Z,97351.06
2022-10-19T02:08:19.005Z,97355.03
2022-10-19T02:09:20.857Z,97345.88
2022-10-19T02:10:22.963Z,97344.91
2022-10-19T02:11:25.211Z,97351.84
2022-10-19T02:12:28.915Z,97354.41
2022-10-19T02:13:32.056Z,97352.22
2022-10-19T02:14:42.824Z,97355.06
2022-10-19T02:15:50.679Z,97352.06
2022-10-19T02:16:58.115Z,97347.81
2022-10-19T02:18:01.474Z,97343.06
2022-10-19T02:19:05.169Z,97345.28
2022-10-19T02:20:07.216Z,97343.69
2022-10-19T02:21:09.495Z,97350.47
2022-10-19T02:22:12.583Z,97346.66
2022-10-19T02:23:17.180Z,97351.22
2022-10-19T02:24:18.833Z,97348.88
2022-10-19T02:25:20.966Z,97341.94
2022-10-19T02:26:22.754Z,97342.75
2022-10-19T02:27:24.554Z,97341.66
2022-10-19T02:28:27.101Z,97344.19
2022-10-19T02:29:28.734Z,97347.47
2022-10-19T02:30:30.409Z,97347.00
2022-10-19T02:31:32.421Z,97349.03
2022-10-19T02:32:34.447Z,97344.31
2022-10-19T02:33:36.834Z,97340.47
2022-10-19T02:34:39.898Z,97346.06
2022-10-19T02:35:41.952Z,97342.44
2022-10-19T02:36:43.662Z,97341.31
2022-10-19T02:37:45.720Z,97342.91
2022-10-19T02:38:47.417Z,97339.16
2022-10-19T02:39:48.947Z,97340.06
2022-10-19T02:41:15.243Z,97342.19
2022-10-19T02:42:46.130Z,97343.03
2022-10-19T02:44:01.105Z,97339.31
2022-10-19T02:45:10.498Z,97343.28
2022-10-19T02:46:20.620Z,97344.84
2022-10-19T02:47:44.951Z,97344.25
2022-10-19T02:48:48.359Z,97344.84
2022-10-19T02:49:50.717Z,97343.88
2022-10-19T02:50:52.269Z,97353.19
2022-10-19T02:52:02.083Z,97341.88
2022-10-19T02:53:03.727Z,97345.84
2022-10-19T02:54:07.683Z,97347.88
2022-10-19T02:55:09.918Z,97344.31
2022-10-19T02:56:11.450Z,97341.38
2022-10-19T02:57:19.298Z,97347.19
2022-10-19T02:58:20.901Z,97346.59
2022-10-19T02:59:23.432Z,97345.97
2022-10-19T03:00:25.149Z,97349.13
2022-10-19T03:01:27.047Z,97352.28
2022-10-19T03:02:28.635Z,97343.16
2022-10-19T03:03:30.146Z,97345.38
2022-10-19T03:04:31.692Z,97346.97
2022-10-19T03:05:33.226Z,97346.06
2022-10-19T03:06:34.786Z,97344.53
2022-10-19T03:07:36.729Z,97348.00
2022-10-19T03:08:38.805Z,97347.41
2022-10-19T03:09:40.978Z,97354.00
2022-10-19T03:10:42.500Z,97344.63
2022-10-19T03:11:44.034Z,97349.84
2022-10-19T03:12:45.637Z,97352.38
2022-10-19T03:14:49.652Z,97357.91
2022-10-19T03:15:51.347Z,97347.41
2022-10-19T03:16:52.868Z,97350.56
2022-10-19T03:17:54.852Z,97349.94
2022-10-19T03:18:56.406Z,97346.97
2022-10-19T03:19:58.012Z,97353.09
2022-10-19T03:21:18.849Z,97351.72
2022-10-19T03:22:20.438Z,97354.41
2022-10-19T03:23:21.958Z,97352.53
2022-10-19T03:24:23.826Z,97349.25
2022-10-19T03:25:25.377Z,97347.66
2022-10-19T03:26:27.342Z,97348.16
2022-10-19T03:27:28.882Z,97351.31
2022-10-19T03:28:30.715Z,97345.97
2022-10-19T03:29:32.358Z,97352.41
2022-10-19T03:30:33.882Z,97349.25
2022-10-19T03:31:35.498Z,97345.38
2022-10-19T03:32:37.563Z,97351.78
2022-10-19T03:33:39.125Z,97352.19
2022-10-19T03:34:40.655Z,97348.84
2022-10-19T03:35:42.159Z,97350.53
2022-10-19T03:36:43.960Z,97347.19
2022-10-19T03:37:45.580Z,97342.88
2022-10-19T03:38:47.666Z,97346.97
2022-10-19T03:39:49.210Z,97342.47
2022-10-19T03:40:50.708Z,97342.09
2022-10-19T03:41:52.324Z,97349.22
2022-10-19T03:42:53.834Z,97345.69
2022-10-19T03:43:56.701Z,97349.63
2022-10-19T03:44:58.618Z,97350.84
2022-10-19T03:46:00.157Z,97350.31
2022-10-19T03:47:02.298Z,97352.94
2022-10-19T03:48:04.469Z,97348.41
2022-10-19T03:49:08.897Z,97348.69
2022-10-19T03:50:13.150Z,97348.69
2022-10-19T03:51:17.415Z,97346.63
2022-10-19T03:52:19.750Z,97349.41
2022-10-19T03:53:21.273Z,97349.53
2022-10-19T03:54:25.091Z,97349.19
2022-10-19T03:55:30.365Z,97347.78
2022-10-19T03:56:33.244Z,97346.03
2022-10-19T03:57:35.086Z,97344.38
2022-10-19T03:58:37.957Z,97344.97
2022-10-19T03:59:39.505Z,97342.28
2022-10-19T04:00:41.059Z,97338.56
2022-10-19T04:01:45.480Z,97348.59
2022-10-19T04:02:46.994Z,97349.63
2022-10-19T04:03:53.723Z,97343.69
2022-10-19T04:04:55.398Z,97345.69
2022-10-19T04:06:03.702Z,97342.34
2022-10-19T04:07:05.239Z,97344.09
2022-10-19T04:08:06.758Z,97345.31
2022-10-19T04:09:11.208Z,97344.91
2022-10-19T04:10:12.736Z,97349.84
2022-10-19T04:11:15.800Z,97348.16
2022-10-19T04:12:17.910Z,97348.84
2022-10-19T04:13:19.439Z,97345.28
2022-10-19T04:14:31.868Z,97338.56
2022-10-19T04:15:34.769Z,97345.69
2022-10-19T04:16:36.429Z,97336.59
2022-10-19T04:17:38.034Z,97341.13
2022-10-19T04:18:39.592Z,97340.31
2022-10-19T04:19:43.540Z,97340.66
2022-10-19T04:20:45.325Z,97333.97
2022-10-19T04:21:49.071Z,97338.38
2022-10-19T04:22:53.059Z,97338.28
2022-10-19T04:24:03.626Z,97336.69
2022-10-19T04:25:05.788Z,97334.31
2022-10-19T04:26:08.090Z,97341.66
2022-10-19T04:27:09.846Z,97339.69
2022-10-19T04:28:11.417Z,97340.91
2022-10-19T04:29:14.444Z,97339.63
2022-10-19T04:30:16.155Z,97335.66
2022-10-19T04:31:17.701Z,97336.28
2022-10-19T04:32:21.638Z,97333.59
2022-10-19T04:33:23.965Z,97337.34
2022-10-19T04:34:25.587Z,97334.00
2022-10-19T04:35:27.501Z,97334.41
2022-10-19T04:36:29.122Z,97344.31
2022-10-19T04:37:30.928Z,97340.94
2022-10-19T04:38:33.640Z,97334.03
2022-10-19T04:39:39.329Z,97336.03
2022-10-19T04:40:45.619Z,97336.78
2022-10-19T04:41:47.235Z,97340.03
2022-10-19T04:42:48.785Z,97335.28
2022-10-19T04:43:55.962Z,97333.03
2022-10-19T04:44:57.508Z,97335.22
2022-10-19T04:46:04.528Z,97331.53
2022-10-19T04:47:06.081Z,97336.78
2022-10-19T04:48:07.700Z,97343.69
2022-10-19T04:49:09.230Z,97332.47
2022-10-19T04:50:11.020Z,97339.34
2022-10-19T04:51:12.892Z,97336.69
2022-10-19T04:52:14.442Z,97335.59
2022-10-19T04:53:16.049Z,97334.72
2022-10-19T04:54:17.607Z,97336.03
2022-10-19T04:55:19.150Z,97335.13
2022-10-19T04:56:23.228Z,97344.28
2022-10-19T04:57:24.757Z,97343.91
2022-10-19T04:58:27.431Z,97337.69
2022-10-19T04:59:28.937Z,97346.66
2022-10-19T05:00:30.515Z,97341.22
2022-10-19T05:01:32.076Z,97343.31
2022-10-19T05:02:33.772Z,97344.59
2022-10-19T05:03:35.426Z,97331.47
2022-10-19T05:04:37.766Z,97334.63
2022-10-19T05:05:40.694Z,97339.94
2022-10-19T05:06:42.229Z,97337.19
2022-10-19T05:07:43.791Z,97342.03
2022-10-19T05:08:45.314Z,97338.66
2022-10-19T05:09:46.844Z,97341.16
2022-10-19T05:10:48.428Z,97337.41
2022-10-19T05:11:50.993Z,97343.63
2022-10-19T05:12:52.782Z,97344.53
2022-10-19T05:13:55.838Z,97343.13
2022-10-19T05:14:57.346Z,97342.53
2022-10-19T05:16:04.680Z,97338.19
2022-10-19T05:17:06.213Z,97336.41
2022-10-19T05:18:08.245Z,97337.22
2022-10-19T05:19:14.263Z,97333.94
2022-10-19T05:20:15.867Z,97343.72
2022-10-19T05:21:18.077Z,97337.41
2022-10-19T05:22:19.574Z,97338.19
2022-10-19T05:23:21.176Z,97340.25
2022-10-19T05:24:22.834Z,97329.50
2022-10-19T05:25:24.421Z,97327.91
2022-10-19T05:26:27.224Z,97339.47
2022-10-19T05:27:28.847Z,97331.69
2022-10-19T05:28:30.622Z,97340.94
2022-10-19T05:29:33.899Z,97332.56
2022-10-19T05:30:35.407Z,97337.59
2022-10-19T05:31:37.376Z,97340.75
2022-10-19T05:32:38.919Z,97334.44
2022-10-19T05:33:41.809Z,97340.38
2022-10-19T05:34:43.414Z,97336.31
2022-10-19T05:35:44.934Z,97339.78
2022-10-19T05:36:46.453Z,97345.59
2022-10-19T05:37:47.972Z,97334.63
2022-10-19T05:38:50.419Z,97338.28
2022-10-19T05:39:52.310Z,97333.84
2022-10-19T05:40:53.872Z,97343.03
2022-10-19T05:41:55.456Z,97336.81
2022-10-19T05:42:56.994Z,97332.97
2022-10-19T05:44:00.508Z,97337.81
2022-10-19T05:45:02.043Z,97329.50
2022-10-19T05:46:06.633Z,97333.63
2022-10-19T05:47:08.284Z,97333.03
2022-10-19T05:48:09.820Z,97331.94
2022-10-19T05:49:12.996Z,97335.00
2022-10-19T05:50:14.547Z,97336.88
2022-10-19T05:51:18.543Z,97340.34
2022-10-19T05:52:20.116Z,97328.31
2022-10-19T05:53:21.650Z,97338.09
2022-10-19T05:54:26.319Z,97339.38
2022-10-19T05:55:29.976Z,97338.97
2022-10-19T05:56:33.017Z,97336.19
2022-10-19T05:57:34.735Z,97334.25
2022-10-19T05:58:36.436Z,97344.41
2022-10-19T05:59:38.004Z,97332.44
2022-10-19T06:00:39.537Z,97332.25
2022-10-19T06:01:41.156Z,97334.50
2022-10-19T06:02:42.775Z,97335.19
2022-10-19T06:03:44.362Z,97329.84
2022-10-19T06:04:45.883Z,97330.59
2022-10-19T06:05:48.341Z,97336.56
2022-10-19T06:06:49.916Z,97335.59
2022-10-19T06:07:52.071Z,97336.38
2022-10-19T06:08:56.057Z,97339.09
2022-10-19T06:09:57.581Z,97333.88
2022-10-19T06:11:10.892Z,97332.22
2022-10-19T06:12:12.499Z,97335.97
2022-10-19T06:13:14.891Z,97331.09
2022-10-19T06:14:16.765Z,97330.22
2022-10-19T06:15:18.280Z,97336.72
2022-10-19T06:16:20.452Z,97335.03
2022-10-19T06:17:21.978Z,97333.91
2022-10-19T06:18:25.716Z,97340.03
2022-10-19T06:19:27.231Z,97333.38
2022-10-19T06:20:29.580Z,97329.78
2022-10-19T06:21:32.951Z,97335.97
2022-10-19T06:22:34.530Z,97337.56
2022-10-19T06:23:36.727Z,97331.16
2022-10-19T06:24:38.263Z,97337.66
2022-10-19T06:25:40.804Z,97339.75
2022-10-19T06:26:42.659Z,97337.56
2022-10-19T06:27:44.238Z,97335.03
2022-10-19T06:28:46.129Z,97336.47
2022-10-19T06:29:48.069Z,97328.94
2022-10-19T06:30:49.698Z,97341.91
2022-10-19T06:31:52.127Z,97338.84
2022-10-19T06:32:53.727Z,97330.78
2022-10-19T06:33:56.081Z,97327.69
2022-10-19T06:34:57.686Z,97332.41
2022-10-19T06:36:10.467Z,97331.69
2022-10-19T06:37:12.076Z,97323.75
2022-10-19T06:38:13.943Z,97324.06
2022-10-19T06:39:15.477Z,97325.47
2022-10-19T06:40:17.103Z,97325.13
2022-10-19T06:41:19.543Z,97325.69
2022-10-19T06:42:21.062Z,97324.59
2022-10-19T06:43:22.570Z,97322.25
2022-10-19T06:44:24.117Z,97331.28
2022-10-19T06:45:25.735Z,97323.56
2022-10-19T06:46:28.501Z,97327.91
2022-10-19T06:48:54.954Z,97313.19
2022-10-19T06:49:57.212Z,97315.28
2022-10-19T06:51:00.585Z,97317.41
2022-10-19T06:52:02.607Z,97317.09
2022-10-19T06:53:04.127Z,97316.19
2022-10-19T06:54:05.634Z,97318.63
2022-10-19T06:55:07.752Z,97319.22
2022-10-19T06:56:10.263Z,97320.41
2022-10-19T06:57:11.853Z,97321.34
2022-10-19T06:58:13.451Z,97323.22
2022-10-19T06:59:15.225Z,97318.00
2022-10-19T07:00:17.415Z,97315.81
2022-10-19T07:01:19.217Z,97314.28
2022-10-19T07:02:21.201Z,97322.19
2022-10-19T07:03:24.015Z,97318.91
2022-10-19T07:04:25.543Z,97319.22
2022-10-19T07:05:27.125Z,97316.13
2022-10-19T07:06:28.891Z,97313.44
2022-10-19T07:07:30.495Z,97314.84
2022-10-19T07:08:33.354Z,97312.63
2022-10-19T07:09:35.037Z,97313.19
2022-10-19T07:10:36.613Z,97313.75
2022-10-19T07:11:40.389Z,97310.84
2022-10-19T07:12:46.389Z,97308.81
2022-10-19T07:13:48.046Z,97306.91
2022-10-19T07:14:49.679Z,97307.50
2022-10-19T07:16:00.990Z,97312.44
2022-10-19T07:17:02.571Z,97308.41
2022-10-19T07:18:04.173Z,97311.97
2022-10-19T07:19:05.818Z,97308.72
2022-10-19T07:20:07.722Z,97311.53
2022-10-19T07:21:12.334Z,97308.69
2022-10-19T07:22:19.094Z,97311.47
2022-10-19T07:23:23.235Z,97310.13
2022-10-19T07:24:25.013Z,97304.69
2022-10-19T07:25:26.939Z,97304.88
2022-10-19T07:26:30.560Z,97306.31
2022-10-19T07:27:37.415Z,97304.38
2022-10-19T07:28:40.927Z,97304.56
2022-10-19T07:29:42.585Z,97298.47
2022-10-19T07:30:44.096Z,97296.72
2022-10-19T07:31:45.655Z,97297.25
2022-10-19T07:32:47.307Z,97291.63
2022-10-19T07:33:53.811Z,97296.50
2022-10-19T07:34:55.342Z,97296.31
2022-10-19T07:36:01.910Z,97295.91
2022-10-19T07:37:03.507Z,97284.44
2022-10-19T07:38:05.054Z,97289.31
2022-10-19T07:39:07.915Z,97285.63
2022-10-19T07:40:10.162Z,97289.28
2022-10-19T07:41:15.006Z,97285.81
2022-10-19T07:42:16.545Z,97290.91
2022-10-19T07:43:18.098Z,97284.22
2022-10-19T07:44:19.647Z,97285.25
2022-10-19T07:45:21.901Z,97279.00
2022-10-19T07:46:26.247Z,97281.22
2022-10-19T07:47:27.811Z,97274.66
2022-10-19T07:48:29.482Z,97268.75
2022-10-19T07:49:31.036Z,97268.75
2022-10-19T07:50:32.567Z,97272.16
2022-10-19T07:51:34.123Z,97270.19
2022-10-19T07:52:36.984Z,97274.28
2022-10-19T07:53:39.268Z,97270.13
2022-10-19T07:54:40.946Z,97264.38
2022-10-19T07:55:42.464Z,97266.97
2022-10-19T07:56:44.014Z,97261.03
2022-10-19T07:57:49.839Z,97260.34
2022-10-19T07:58:52.951Z,97256.16
2022-10-19T07:59:54.513Z,97254.69
2022-10-19T08:01:06.042Z,97250.78
2022-10-19T08:02:17.582Z,97261.50
2022-10-19T08:03:57.602Z,97248.97
2022-10-19T08:04:59.491Z,97242.75
2022-10-19T08:06:05.216Z,97241.19
2022-10-19T08:07:06.751Z,97251.28
2022-10-19T08:08:08.262Z,97245.81
2022-10-19T08:09:13.334Z,97243.22
2022-10-19T08:10:20.608Z,97247.56
2022-10-19T08:11:30.506Z,97247.38
2022-10-19T08:12:32.397Z,97244.88
2022-10-19T08:13:34.567Z,97239.47
2022-10-19T08:14:36.382Z,97241.31
2022-10-19T08:15:37.925Z,97243.41
2022-10-19T08:16:41.731Z,97236.00
2022-10-19T08:17:43.243Z,97232.94
2022-10-19T08:18:44.771Z,97233.59
2022-10-19T08:19:47.018Z,97235.53
2022-10-19T08:20:49.894Z,97225.53
2022-10-19T08:21:51.513Z,97226.34
2022-10-19T08:22:56.473Z,97223.38
2022-10-19T08:24:00.567Z,97226.81
2022-10-19T08:25:02.158Z,97218.09
2022-10-19T08:26:03.743Z,97214.28
2022-10-19T08:27:05.388Z,97220.44
2022-10-19T08:28:06.993Z,97218.22
2022-10-19T08:29:19.793Z,97210.00
2022-10-19T08:30:21.456Z,97216.94
2022-10-19T08:31:23.168Z,97219.00
2022-10-19T08:32:27.275Z,97212.06
2022-10-19T08:33:28.823Z,97206.00
2022-10-19T08:34:30.337Z,97210.81
2022-10-19T08:35:33.551Z,97210.91
2022-10-19T08:36:35.754Z,97204.22
2022-10-19T08:37:44.695Z,97205.19
2022-10-19T08:38:50.686Z,97191.88
2022-10-19T08:39:52.198Z,97193.97
2022-10-19T08:40:54.036Z,97189.53
2022-10-19T08:42:15.106Z,97185.53
2022-10-19T08:43:34.442Z,97183.09
2022-10-19T08:45:00.631Z,97180.66
2022-10-19T08:46:30.145Z,97173.53
2022-10-19T08:47:59.320Z,97181.00
2022-10-19T08:49:02.748Z,97170.97
2022-10-19T08:50:18.586Z,97185.34
2022-10-19T08:51:20.342Z,97179.34
2022-10-19T08:52:29.608Z,97174.66
2022-10-19T08:53:45.635Z,97171.41
2022-10-19T08:54:53.579Z,97173.56
2022-10-19T08:56:03.697Z,97172.69
2022-10-19T08:57:31.275Z,97168.13
2022-10-19T08:58:39.561Z,97163.03
2022-10-19T08:59:50.377Z,97162.88
2022-10-19T09:01:11.574Z,97160.41
2022-10-19T09:02:28.129Z,97164.47
2022-10-19T09:03:54.869Z,97158.94
2022-10-19T09:05:05.635Z,97157.38
2022-10-19T09:06:27.470Z,97151.19
2022-10-19T09:07:45.072Z,97156.91
2022-10-19T09:08:47.316Z,97149.34
2022-10-19T09:10:02.845Z,97154.88
2022-10-19T09:11:06.566Z,97151.34
2022-10-19T09:12:13.424Z,97151.38
2022-10-19T09:13:41.421Z,97142.56
2022-10-19T09:15:07.656Z,97151.50
2022-10-19T09:16:14.509Z,97142.38
2022-10-19T09:17:19.162Z,97145.09
2022-10-19T09:18:25.775Z,97151.13
2022-10-19T09:19:30.825Z,97142.72
2022-10-19T09:20:38.323Z,97141.59
2022-10-19T09:21:53.457Z,97144.53
2022-10-19T09:23:13.437Z,97141.22
2022-10-19T09:24:42.727Z,97145.78
2022-10-19T09:25:44.658Z,97145.69
2022-10-19T09:26:55.744Z,97143.31
2022-10-19T09:28:34.029Z,97132.13
2022-10-19T09:29:47.947Z,97127.88
2022-10-19T09:30:51.537Z,97128.38
2022-10-19T09:33:03.610Z,97134.50
2022-10-19T09:34:08.177Z,97133.06
2022-10-19T09:35:32.079Z,97125.63
2022-10-19T09:36:51.583Z,97116.56
2022-10-19T09:37:54.164Z,97121.00
2022-10-19T09:38:55.684Z,97121.56
2022-10-19T09:39:57.410Z,97110.00
2022-10-19T09:41:13.706Z,97115.59
2022-10-19T09:42:23.060Z,97112.13
2022-10-19T09:43:27.210Z,97108.03
2022-10-19T09:44:30.253Z,97112.00
2022-10-19T09:45:35.083Z,97119.97
2022-10-19T09:46:51.989Z,97109.88
2022-10-19T09:47:53.652Z,97102.97
2022-10-19T09:48:55.191Z,97105.69
2022-10-19T09:50:08.804Z,97101.72
2022-10-19T09:51:15.882Z,97103.84
2022-10-19T09:52:51.079Z,97102.59
2022-10-19T09:53:56.117Z,97101.75
2022-10-19T09:55:35.066Z,97097.91
2022-10-19T09:56:39.186Z,97097.22
2022-10-19T09:57:44.852Z,97087.75
2022-10-19T09:58:51.751Z,97092.19
2022-10-19T09:59:53.392Z,97089.34
2022-10-19T10:00:56.565Z,97091.25
2022-10-19T10:02:06.753Z,97091.06
2022-10-19T10:03:21.528Z,97084.88
2022-10-19T10:04:23.041Z,97072.69
2022-10-19T10:05:33.543Z,97076.75
2022-10-19T10:06:36.544Z,97080.44
2022-10-19T10:07:39.901Z,97075.56
2022-10-19T10:08:57.968Z,97080.94
2022-10-19T10:10:00.658Z,97072.47
2022-10-19T10:11:30.923Z,97072.63
2022-10-19T10:12:35.667Z,97078.06
2022-10-19T10:13:40.847Z,97066.13
2022-10-19T10:14:44.175Z,97069.59
2022-10-19T10:15:51.116Z,97064.19
2022-10-19T10:17:04.847Z,97061.09
2022-10-19T10:18:06.470Z,97061.03
2022-10-19T10:19:12.933Z,97050.53
2022-10-19T10:20:26.888Z,97049.06
2022-10-19T10:22:02.947Z,97048.53
2022-10-19T10:23:06.575Z,97045.41
2022-10-19T10:24:10.902Z,97057.38
2022-10-19T10:25:18.097Z,97049.00
2022-10-19T10:26:20.101Z,97043.69
2022-10-19T10:27:30.563Z,97040.66
2022-10-19T10:28:32.417Z,97035.63
2022-10-19T10:29:39.263Z,97036.97
2022-10-19T10:30:41.074Z,97036.19
2022-10-19T10:31:43.136Z,97027.66
2022-10-19T10:32:53.803Z,97032.81
2022-10-19T10:34:10.899Z,97024.66
2022-10-19T10:35:30.666Z,97027.66
2022-10-19T10:36:32.431Z,97020.59
2022-10-19T10:37:42.837Z,97018.25
2022-10-19T10:38:53.095Z,97012.22
2022-10-19T10:40:00.553Z,97016.16
2022-10-19T10:41:17.822Z,97009.84
2022-10-19T10:42:26.769Z,97003.56
2022-10-19T10:43:33.655Z,97011.22
2022-10-19T10:44:36.790Z,97007.28
2022-10-19T10:45:41.555Z,97000.34
2022-10-19T10:46:55.725Z,96998.25
2022-10-19T10:48:14.775Z,97005.22
2022-10-19T10:49:23.478Z,96997.78
2022-10-19T10:50:32.514Z,96997.06
2022-10-19T10:51:36.991Z,96995.50
2022-10-19T10:52:58.332Z,96994.72
2022-10-19T10:54:24.710Z,96988.50
2022-10-19T10:55:27.216Z,96988.59
2022-10-19T10:56:33.445Z,96971.56
2022-10-19T10:57:40.047Z,96980.16
2022-10-19T10:58:44.226Z,96969.78
2022-10-19T11:00:11.198Z,96967.59
2022-10-19T11:01:20.386Z,96974.91
2022-10-19T11:02:43.969Z,96969.47
2022-10-19T11:03:55.753Z,96965.66
2022-10-19T11:05:06.049Z,96964.94
2022-10-19T11:06:09.154Z,96958.41
2022-10-19T11:07:20.368Z,96957.28
2022-10-19T11:08:46.913Z,96953.53
2022-10-19T11:09:58.979Z,96949.78
2022-10-19T11:11:25.799Z,96940.03
2022-10-19T11:13:10.067Z,96938.97
2022-10-19T11:14:51.162Z,96933.25
2022-10-19T11:16:13.565Z,96927.47
2022-10-19T11:17:22.114Z,96928.22
2022-10-19T11:18:29.638Z,96934.47
2022-10-19T11:19:41.097Z,96923.63
2022-10-19T11:21:06.230Z,96922.19
2022-10-19T11:22:23.597Z,96917.22
2022-10-19T11:24:00.222Z,96916.06
2022-10-19T11:25:16.926Z,96909.84
2022-10-19T11:26:44.825Z,96905.16
2022-10-19T11:28:18.571Z,96900.88
2022-10-19T11:29:38.445Z,96902.06
2022-10-19T11:31:06.679Z,96899.78
2022-10-19T11:32:37.145Z,96892.03
2022-10-19T11:34:04.147Z,96887.81
2022-10-19T11:35:20.400Z,96877.34
2022-10-19T11:36:54.414Z,96882.81
2022-10-19T11:38:36.316Z,96883.63
2022-10-19T11:40:11.854Z,96879.72
2022-10-19T11:41:26.957Z,96871.97
2022-10-19T11:42:59.149Z,96876.66
2022-10-19T11:44:22.510Z,96876.34
2022-10-19T11:45:29.970Z,96875.59
2022-10-19T11:46:40.469Z,96869.78
2022-10-19T11:47:53.772Z,96869.81
2022-10-19T11:49:04.509Z,96867.47
2022-10-19T11:50:35.202Z,96865.94
2022-10-19T11:51:52.016Z,96861.28
2022-10-19T11:53:06.839Z,96861.28
2022-10-19T11:54:56.747Z,96852.75
2022-10-19T11:56:10.425Z,96854.31
2022-10-19T11:57:28.065Z,96852.38
2022-10-19T11:58:35.039Z,96855.88
2022-10-19T11:59:39.910Z,96848.09
2022-10-19T12:00:52.450Z,96841.88
2022-10-19T12:02:18.764Z,96842.25
2022-10-19T12:03:56.740Z,96839.56
2022-10-19T12:05:07.087Z,96833.75
2022-10-19T12:06:45.691Z,96839.56
2022-10-19T12:07:50.210Z,96838.81
2022-10-19T12:09:29.096Z,96828.31
2022-10-19T12:11:18.826Z,96834.91
2022-10-19T12:12:26.534Z,96829.47
2022-10-19T12:13:44.375Z,96826.34
2022-10-19T12:14:51.283Z,96826.72
2022-10-19T12:15:55.255Z,96820.13
2022-10-19T12:17:02.316Z,96820.13
2022-10-19T12:18:41.831Z,96815.44
2022-10-19T12:19:48.145Z,96820.50
2022-10-19T12:20:57.493Z,96816.22
2022-10-19T12:22:01.822Z,96823.22
2022-10-19T12:23:17.038Z,96817.78
2022-10-19T12:24:23.347Z,96813.88
2022-10-19T12:25:26.358Z,96814.66
2022-10-19T12:26:32.730Z,96814.66
2022-10-19T12:27:37.063Z,96818.50
2022-10-19T12:28:41.872Z,96821.22
2022-10-19T12:29:48.133Z,96815.78
2022-10-19T12:30:51.315Z,96808.38
2022-10-19T12:31:55.202Z,96808.41
2022-10-19T12:33:20.381Z,96811.91
2022-10-19T12:34:37.102Z,96799.84
2022-10-19T12:36:13.896Z,96812.31
2022-10-19T12:37:54.287Z,96813.06
2022-10-19T12:39:04.678Z,96802.19
2022-10-19T12:40:18.944Z,96806.47
2022-10-19T12:41:31.394Z,96808.38
2022-10-19T12:42:35.813Z,96802.16
2022-10-19T12:43:54.071Z,96801.00
2022-10-19T12:45:18.863Z,96795.91
2022-10-19T12:46:34.964Z,96800.59
2022-10-19T12:47:36.796Z,96792.78
2022-10-19T12:48:39.319Z,96797.09
2022-10-19T12:49:51.788Z,96795.19
2022-10-19T12:50:53.926Z,96795.56
2022-10-19T12:52:00.674Z,96780.78
2022-10-19T12:53:02.297Z,96775.69
2022-10-19T12:54:11.823Z,96787.38
2022-10-19T12:55:16.341Z,96786.59
2022-10-19T12:56:23.700Z,96783.47
2022-10-19T12:57:30.221Z,96786.59
2022-10-19T12:58:47.513Z,96781.91
2022-10-19T13:00:24.899Z,96783.38
2022-10-19T13:01:42.146Z,96779.88
2022-10-19T13:02:46.357Z,96777.91
2022-10-19T13:03:53.266Z,96776.34
2022-10-19T13:04:55.097Z,96780.25
2022-10-19T13:05:58.705Z,96777.91
2022-10-19T13:07:08.384Z,96779.88
2022-10-19T13:08:24.293Z,96772.84
2022-10-19T13:09:46.985Z,96777.13
2022-10-19T13:11:07.987Z,96781.75
2022-10-19T13:12:21.633Z,96776.31
2022-10-19T13:13:53.356Z,96780.94